createdAt,value
2023-05-23T00:02:16.387Z,1.53
2023-05-23T00:04:44.219Z,0.27
2023-05-23T00:07:10.993Z,0.57
2023-05-23T00:09:37.940Z,0.63
2023-05-23T00:12:05.209Z,0.60
2023-05-23T00:14:33.732Z,0.47
2023-05-23T00:17:01.479Z,0.80
2023-05-23T00:19:28.525Z,0.53
2023-05-23T00:21:58.316Z,1.80
2023-05-23T00:24:25.135Z,1.67
2023-05-23T00:26:52.013Z,0.33
2023-05-23T00:29:19.572Z,1.07
2023-05-23T00:31:47.476Z,1.03
2023-05-23T00:34:17.457Z,1.17
2023-05-23T00:36:47.324Z,1.03
2023-05-23T00:39:19.385Z,0.30
2023-05-23T00:41:52.984Z,0.60
2023-05-23T00:44:21.111Z,1.40
2023-05-23T00:46:53.067Z,0.87
2023-05-23T00:49:22.155Z,0.83
2023-05-23T00:51:49.574Z,1.67
2023-05-23T00:54:21.446Z,0.87
2023-05-23T00:56:48.672Z,1.43
2023-05-23T00:59:16.103Z,1.53
2023-05-23T01:01:46.816Z,1.53
2023-05-23T01:04:14.759Z,1.03
2023-05-23T01:06:41.677Z,1.73
2023-05-23T01:09:09.622Z,2.27
2023-05-23T01:12:09.890Z,1.70
2023-05-23T01:14:48.627Z,0.57
2023-05-23T01:17:31.885Z,0.20
2023-05-23T01:20:24.190Z,0.60
2023-05-23T01:23:32.864Z,1.07
2023-05-23T01:26:28.140Z,2.00
2023-05-23T01:29:05.749Z,1.13
2023-05-23T01:31:34.826Z,0.70
2023-05-23T01:34:02.734Z,1.47
2023-05-23T01:36:29.543Z,1.77
2023-05-23T01:38:56.351Z,1.13
2023-05-23T01:41:23.174Z,1.00
2023-05-23T01:43:50.017Z,1.83
2023-05-23T01:46:17.299Z,1.57
2023-05-23T01:48:45.082Z,1.30
2023-05-23T01:51:12.419Z,1.73
2023-05-23T01:53:39.297Z,1.37
2023-05-23T01:56:06.764Z,1.17
2023-05-23T01:58:33.755Z,2.50
2023-05-23T02:01:01.091Z,2.13
2023-05-23T02:03:28.319Z,0.57
2023-05-23T02:05:55.219Z,1.00
2023-05-23T02:08:22.013Z,1.43
2023-05-23T02:10:48.761Z,1.03
2023-05-23T02:13:15.514Z,0.87
2023-05-23T02:15:42.391Z,1.77
2023-05-23T02:18:09.339Z,0.43
2023-05-23T02:20:36.140Z,0.90
2023-05-23T02:23:02.929Z,0.80
2023-05-23T02:25:29.714Z,0.60
2023-05-23T02:27:56.489Z,0.50
2023-05-23T02:30:23.237Z,0.40
2023-05-23T02:32:51.554Z,1.00
2023-05-23T02:35:18.311Z,2.57
2023-05-23T02:37:45.079Z,0.93
2023-05-23T02:40:12.169Z,0.50
2023-05-23T02:42:38.952Z,1.03
2023-05-23T02:45:06.340Z,1.53
2023-05-23T02:47:33.247Z,1.50
2023-05-23T02:50:00.047Z,0.83
2023-05-23T02:52:26.866Z,1.43
2023-05-23T02:54:53.729Z,1.90
2023-05-23T02:57:20.472Z,1.00
2023-05-23T02:59:47.218Z,0.87
2023-05-23T03:02:14.132Z,0.93
2023-05-23T03:04:41.100Z,0.50
2023-05-23T03:07:11.695Z,0.97
2023-05-23T03:09:47.293Z,2.40
2023-05-23T03:12:14.092Z,0.70
2023-05-23T03:14:41.232Z,0.73
2023-05-23T03:17:07.958Z,1.33
2023-05-23T03:19:36.631Z,1.27
2023-05-23T03:22:03.895Z,1.77
2023-05-23T03:24:31.800Z,1.37
2023-05-23T03:26:58.545Z,1.27
2023-05-23T03:29:25.343Z,1.40
2023-05-23T03:31:53.108Z,1.37
2023-05-23T03:34:19.891Z,1.70
2023-05-23T03:36:46.617Z,2.23
2023-05-23T03:39:13.379Z,1.80
2023-05-23T03:41:40.191Z,1.43
2023-05-23T03:44:07.832Z,0.93
2023-05-23T03:46:35.012Z,1.80
2023-05-23T03:49:01.796Z,1.13
2023-05-23T03:51:29.212Z,0.87
2023-05-23T03:53:56.064Z,1.13
2023-05-23T03:56:22.986Z,1.70
2023-05-23T03:58:49.721Z,1.27
2023-05-23T04:01:16.512Z,1.57
2023-05-23T04:03:43.336Z,0.70
2023-05-23T04:06:12.232Z,1.10
2023-05-23T04:08:41.925Z,2.17
2023-05-23T04:11:08.680Z,1.43
2023-05-23T04:13:35.464Z,0.93
2023-05-23T04:16:05.498Z,1.60
2023-05-23T04:18:38.936Z,0.90
2023-05-23T04:21:05.980Z,0.63
2023-05-23T04:23:32.871Z,0.87
2023-05-23T04:26:00.363Z,0.53
2023-05-23T04:28:27.803Z,0.80
2023-05-23T04:30:56.172Z,1.63
2023-05-23T04:33:23.051Z,1.03
2023-05-23T04:35:50.048Z,1.33
2023-05-23T04:38:17.101Z,1.13
2023-05-23T04:40:43.879Z,1.20
2023-05-23T04:43:14.190Z,0.83
2023-05-23T04:45:41.605Z,0.90
2023-05-23T04:48:08.767Z,0.73
2023-05-23T04:50:35.972Z,1.13
2023-05-23T04:53:02.890Z,0.40
2023-05-23T04:55:29.750Z,1.43
2023-05-23T04:57:56.696Z,0.50
2023-05-23T05:00:23.659Z,0.63
2023-05-23T05:02:51.511Z,0.63
2023-05-23T05:05:19.532Z,0.63
2023-05-23T05:07:46.358Z,0.90
2023-05-23T05:10:17.760Z,1.03
2023-05-23T05:12:46.864Z,0.60
2023-05-23T05:15:13.985Z,1.33
2023-05-23T05:17:42.079Z,0.60
2023-05-23T05:20:10.918Z,0.77
2023-05-23T05:22:40.812Z,0.57
2023-05-23T05:25:09.554Z,0.73
2023-05-23T05:27:39.785Z,1.77
2023-05-23T05:30:08.782Z,0.90
2023-05-23T05:32:35.636Z,0.80
2023-05-23T05:35:03.287Z,1.40
2023-05-23T05:37:30.411Z,1.10
2023-05-23T05:39:57.209Z,1.10
2023-05-23T05:42:24.259Z,1.13
2023-05-23T05:44:51.036Z,1.13
2023-05-23T05:47:17.884Z,0.90
2023-05-23T05:49:44.733Z,1.30
2023-05-23T05:52:11.539Z,1.10
2023-05-23T05:54:38.306Z,1.50
2023-05-23T05:57:05.347Z,0.70
2023-05-23T05:59:32.719Z,1.93
2023-05-23T06:01:59.895Z,1.17
2023-05-23T06:04:26.770Z,1.00
2023-05-23T06:06:53.596Z,0.90
2023-05-23T06:09:20.739Z,0.67
2023-05-23T06:11:47.516Z,1.33
2023-05-23T06:14:14.273Z,1.17
2023-05-23T06:16:41.769Z,1.83
2023-05-23T06:19:08.718Z,1.20
2023-05-23T06:21:36.186Z,0.57
2023-05-23T06:24:03.026Z,1.60
2023-05-23T06:26:30.858Z,1.07
2023-05-23T06:28:57.718Z,1.17
2023-05-23T06:31:24.571Z,1.07
2023-05-23T06:33:51.571Z,1.47
2023-05-23T06:36:18.420Z,0.57
2023-05-23T06:38:45.262Z,0.53
2023-05-23T06:41:12.127Z,1.17
2023-05-23T06:43:38.917Z,1.07
2023-05-23T06:46:06.743Z,0.57
2023-05-23T06:48:33.683Z,1.27
2023-05-23T06:51:00.611Z,1.30
2023-05-23T06:53:27.409Z,1.03
2023-05-23T06:55:54.137Z,0.50
2023-05-23T06:58:24.896Z,0.40
2023-05-23T07:00:51.747Z,0.97
2023-05-23T07:03:18.655Z,0.87
2023-05-23T07:05:45.534Z,0.87
2023-05-23T07:08:12.962Z,0.40
2023-05-23T07:10:41.609Z,0.77
2023-05-23T07:13:09.005Z,1.00
2023-05-23T07:15:36.140Z,0.37
2023-05-23T07:18:03.036Z,1.07
2023-05-23T07:20:30.032Z,0.40
2023-05-23T07:22:57.289Z,0.60
2023-05-23T07:25:24.091Z,0.40
2023-05-23T07:27:52.623Z,0.43
2023-05-23T07:30:20.277Z,0.30
2023-05-23T07:32:48.039Z,0.57
2023-05-23T07:35:16.830Z,0.40
2023-05-23T07:37:44.872Z,0.83
2023-05-23T07:40:11.846Z,0.60
2023-05-23T07:42:38.587Z,0.37
2023-05-23T07:45:05.942Z,0.90
2023-05-23T07:47:32.973Z,0.73
2023-05-23T07:50:02.101Z,0.80
2023-05-23T07:52:31.088Z,0.40
2023-05-23T07:54:58.726Z,0.07
2023-05-23T07:57:26.047Z,0.63
2023-05-23T07:59:53.825Z,0.30
2023-05-23T08:02:21.177Z,0.67
2023-05-23T08:04:49.897Z,0.00
2023-05-23T08:07:19.219Z,0.60
2023-05-23T08:09:46.319Z,0.30
2023-05-23T08:12:13.143Z,0.67
2023-05-23T08:14:50.757Z,0.30
2023-05-23T08:17:18.813Z,0.50
2023-05-23T08:19:46.007Z,0.57
2023-05-23T08:22:12.821Z,0.20
2023-05-23T08:24:39.595Z,0.67
2023-05-23T08:27:07.832Z,0.50
2023-05-23T08:29:41.151Z,0.60
2023-05-23T08:32:07.961Z,0.30
2023-05-23T08:34:35.024Z,0.20
2023-05-23T08:37:01.839Z,0.47
2023-05-23T08:39:28.628Z,1.10
2023-05-23T08:41:55.438Z,1.00
2023-05-23T08:44:22.228Z,0.67
2023-05-23T08:46:53.176Z,0.80
2023-05-23T08:49:22.704Z,0.20
2023-05-23T08:51:54.380Z,0.33
2023-05-23T08:54:22.182Z,0.63
2023-05-23T08:56:49.139Z,0.53
2023-05-23T08:59:16.561Z,0.30
2023-05-23T09:01:46.024Z,0.20
2023-05-23T09:04:12.829Z,0.30
2023-05-23T09:06:39.601Z,0.70
2023-05-23T09:09:07.232Z,0.40
2023-05-23T09:11:36.036Z,0.37
2023-05-23T09:14:05.000Z,0.37
2023-05-23T09:16:34.821Z,0.60
2023-05-23T09:19:11.993Z,0.73
2023-05-23T09:21:46.046Z,0.53
2023-05-23T09:24:13.164Z,0.40
2023-05-23T09:26:40.029Z,0.40
2023-05-23T09:29:07.578Z,0.83
2023-05-23T09:31:34.617Z,0.33
2023-05-23T09:34:01.639Z,0.50
2023-05-23T09:36:30.422Z,0.37
2023-05-23T09:38:57.459Z,0.50
2023-05-23T09:41:25.054Z,0.40
2023-05-23T09:43:55.042Z,0.37
2023-05-23T09:46:23.391Z,0.40
2023-05-23T09:48:52.934Z,0.40
2023-05-23T09:51:21.420Z,0.10
2023-05-23T09:53:49.942Z,0.30
2023-05-23T09:56:17.520Z,0.50
2023-05-23T09:58:51.086Z,0.47
2023-05-23T10:01:18.165Z,0.50
2023-05-23T10:03:51.065Z,0.37
2023-05-23T10:06:36.348Z,0.50
2023-05-23T10:09:06.062Z,0.30
2023-05-23T10:11:36.067Z,0.43
2023-05-23T10:14:09.533Z,0.47
2023-05-23T10:16:50.832Z,0.30
2023-05-23T10:19:26.048Z,0.27
2023-05-23T10:21:59.621Z,0.30
2023-05-23T10:24:29.059Z,0.30
2023-05-23T10:26:56.215Z,0.53
2023-05-23T10:29:23.450Z,0.40
2023-05-23T10:31:51.998Z,0.30
2023-05-23T10:34:32.528Z,0.63
2023-05-23T10:37:17.710Z,0.10
2023-05-23T10:40:22.524Z,0.10
2023-05-23T10:43:18.644Z,0.30
2023-05-23T10:45:46.776Z,0.20
2023-05-23T10:48:44.464Z,0.37
2023-05-23T10:51:15.740Z,0.30
2023-05-23T10:53:47.245Z,0.23
2023-05-23T10:56:23.422Z,0.20
2023-05-23T10:58:54.830Z,0.10
2023-05-23T11:01:23.931Z,0.33
2023-05-23T11:03:55.296Z,0.30
2023-05-23T11:06:52.881Z,0.30
2023-05-23T11:09:21.841Z,0.20
2023-05-23T11:11:54.381Z,0.40
2023-05-23T11:14:33.322Z,0.00
2023-05-23T11:17:01.949Z,0.10
2023-05-23T11:19:29.777Z,0.20
2023-05-23T11:22:03.739Z,0.10
2023-05-23T11:24:52.366Z,0.30
2023-05-23T11:27:41.344Z,0.20
2023-05-23T11:30:16.118Z,0.37
2023-05-23T11:32:52.122Z,0.10
2023-05-23T11:35:21.047Z,0.20
2023-05-23T11:37:48.165Z,0.30
2023-05-23T11:40:36.180Z,0.50
2023-05-23T11:43:10.891Z,0.40
2023-05-23T11:45:39.240Z,0.30
2023-05-23T11:48:15.105Z,0.30
2023-05-23T11:50:52.898Z,0.20
2023-05-23T11:53:22.415Z,0.63
2023-05-23T11:55:59.898Z,0.10
2023-05-23T11:58:34.868Z,0.20
2023-05-23T12:01:12.356Z,0.00
2023-05-23T12:03:51.038Z,0.50
2023-05-23T12:06:24.631Z,0.00
2023-05-23T12:08:54.548Z,0.20
2023-05-23T12:11:23.588Z,0.20
2023-05-23T12:13:53.301Z,0.37
2023-05-23T12:16:21.504Z,0.13
2023-05-23T12:18:48.457Z,0.03
2023-05-23T12:21:15.424Z,0.50
2023-05-23T12:23:42.377Z,0.30
2023-05-23T12:26:10.224Z,0.47
2023-05-23T12:28:45.657Z,0.30
2023-05-23T12:31:14.086Z,0.40
2023-05-23T12:33:45.654Z,0.40
2023-05-23T12:36:12.933Z,0.40
2023-05-23T12:38:40.971Z,0.50
2023-05-23T12:41:12.566Z,0.40
2023-05-23T12:43:53.905Z,0.43
2023-05-23T12:46:29.855Z,0.20
2023-05-23T12:48:57.092Z,0.50
2023-05-23T12:51:23.905Z,0.53
2023-05-23T12:53:51.503Z,0.43
2023-05-23T12:56:18.413Z,0.30
2023-05-23T12:58:45.276Z,0.50
2023-05-23T13:01:12.520Z,0.57
2023-05-23T13:03:39.386Z,0.30
2023-05-23T13:06:07.171Z,0.60
2023-05-23T13:08:34.059Z,0.27
2023-05-23T13:11:00.859Z,0.50
2023-05-23T13:13:27.699Z,0.30
2023-05-23T13:15:54.794Z,0.40
2023-05-23T13:18:21.693Z,0.30
2023-05-23T13:20:48.526Z,0.47
2023-05-23T13:23:15.566Z,0.20
2023-05-23T13:25:42.537Z,0.20
2023-05-23T13:28:10.596Z,0.30
2023-05-23T13:30:37.394Z,0.37
2023-05-23T13:33:04.908Z,0.33
2023-05-23T13:35:31.724Z,0.30
2023-05-23T13:37:58.508Z,0.10
2023-05-23T13:40:27.431Z,0.57
2023-05-23T13:42:54.205Z,0.57
2023-05-23T13:45:22.985Z,0.30
2023-05-23T13:47:49.895Z,0.30
2023-05-23T13:50:17.338Z,0.23
2023-05-23T13:52:48.256Z,0.40
2023-05-23T13:55:17.260Z,0.13
2023-05-23T13:57:44.381Z,0.07
2023-05-23T14:00:12.328Z,0.13
2023-05-23T14:02:39.129Z,0.37
2023-05-23T14:05:07.284Z,0.43
2023-05-23T14:07:34.085Z,0.50
2023-05-23T14:10:00.981Z,0.20
2023-05-23T14:12:29.058Z,0.17
2023-05-23T14:14:55.858Z,0.47
2023-05-23T14:17:22.660Z,0.50
2023-05-23T14:19:49.514Z,0.30
2023-05-23T14:22:16.313Z,0.17
2023-05-23T14:24:43.289Z,0.60
2023-05-23T14:27:11.544Z,0.20
2023-05-23T14:29:38.949Z,0.40
2023-05-23T14:32:06.309Z,0.63
2023-05-23T14:34:33.239Z,0.20
2023-05-23T14:37:01.098Z,0.10
2023-05-23T14:39:28.927Z,0.40
2023-05-23T14:41:55.940Z,0.53
2023-05-23T14:44:23.001Z,0.10
2023-05-23T14:46:50.161Z,0.00
2023-05-23T14:49:17.902Z,0.20
2023-05-23T14:51:50.221Z,0.40
2023-05-23T14:54:17.904Z,0.00
2023-05-23T14:56:44.661Z,0.40
2023-05-23T14:59:11.533Z,0.13
2023-05-23T15:01:40.074Z,0.13
2023-05-23T15:04:09.049Z,0.10
2023-05-23T15:06:38.746Z,0.33
2023-05-23T15:09:06.102Z,0.23
2023-05-23T15:11:34.784Z,0.30
2023-05-23T15:14:01.691Z,0.20
2023-05-23T15:16:32.453Z,0.17
2023-05-23T15:18:59.854Z,0.30
2023-05-23T15:21:26.737Z,0.20
2023-05-23T15:23:54.075Z,0.20
2023-05-23T15:26:20.855Z,0.37
2023-05-23T15:28:47.836Z,0.20
2023-05-23T15:31:15.829Z,0.10
2023-05-23T15:33:42.898Z,0.70
2023-05-23T15:36:09.975Z,0.40
2023-05-23T15:38:36.733Z,0.20
2023-05-23T15:41:04.727Z,0.10
2023-05-23T15:43:32.521Z,0.00
2023-05-23T15:46:00.445Z,0.40
2023-05-23T15:48:27.444Z,0.57
2023-05-23T15:50:54.395Z,0.40
2023-05-23T15:53:21.351Z,0.60
2023-05-23T15:55:48.095Z,0.33
2023-05-23T15:58:15.922Z,0.40
2023-05-23T16:00:42.979Z,0.50
2023-05-23T16:03:09.980Z,0.27
2023-05-23T16:05:36.810Z,0.60
2023-05-23T16:08:03.688Z,0.20
2023-05-23T16:10:30.502Z,0.43
2023-05-23T16:12:57.284Z,0.50
2023-05-23T16:15:24.041Z,0.67
2023-05-23T16:17:50.859Z,0.40
2023-05-23T16:20:17.810Z,0.30
2023-05-23T16:22:45.790Z,0.40
2023-05-23T16:25:12.866Z,0.30
2023-05-23T16:27:40.439Z,0.40
2023-05-23T16:30:08.126Z,0.23
2023-05-23T16:32:35.048Z,0.57
2023-05-23T16:35:01.909Z,0.57
2023-05-23T16:37:28.689Z,0.20
2023-05-23T16:39:55.457Z,0.03
2023-05-23T16:42:22.340Z,0.53
2023-05-23T16:44:49.270Z,0.50
2023-05-23T16:47:16.783Z,0.50
2023-05-23T16:49:43.607Z,0.60
2023-05-23T16:52:10.359Z,0.43
2023-05-23T16:54:37.147Z,0.40
2023-05-23T16:57:05.437Z,0.47
2023-05-23T16:59:32.558Z,0.20
2023-05-23T17:01:59.349Z,0.20
2023-05-23T17:04:26.192Z,0.17
2023-05-23T17:06:52.987Z,0.40
2023-05-23T17:09:22.052Z,0.50
2023-05-23T17:11:51.049Z,0.50
2023-05-23T17:14:17.863Z,0.33
2023-05-23T17:16:47.258Z,0.37
2023-05-23T17:19:14.084Z,0.40
2023-05-23T17:21:41.118Z,0.10
2023-05-23T17:24:07.880Z,0.10
2023-05-23T17:26:34.624Z,0.53
2023-05-23T17:29:01.441Z,0.73
2023-05-23T17:31:29.783Z,0.40
2023-05-23T17:33:57.724Z,0.10
2023-05-23T17:36:26.166Z,0.30
2023-05-23T17:38:53.921Z,0.30
2023-05-23T17:41:23.039Z,0.00
2023-05-23T17:43:50.294Z,0.17
2023-05-23T17:46:18.171Z,0.20
2023-05-23T17:48:48.048Z,0.30
2023-05-23T17:51:15.870Z,0.50
2023-05-23T17:53:43.266Z,0.50
2023-05-23T17:56:10.550Z,0.07
2023-05-23T17:58:38.773Z,0.30
2023-05-23T18:01:06.847Z,0.43
2023-05-23T18:03:33.660Z,0.30
2023-05-23T18:06:01.436Z,0.00
2023-05-23T18:08:28.250Z,0.30
2023-05-23T18:10:55.206Z,0.10
2023-05-23T18:13:22.017Z,0.20
2023-05-23T18:15:50.450Z,0.20
2023-05-23T18:18:20.018Z,0.10
2023-05-23T18:20:47.122Z,0.10
2023-05-23T18:23:13.905Z,0.10
2023-05-23T18:25:40.692Z,0.30
2023-05-23T18:28:07.676Z,0.30
2023-05-23T18:30:34.467Z,0.00
2023-05-23T18:33:01.412Z,0.00
2023-05-23T18:35:28.422Z,0.27
2023-05-23T18:37:55.341Z,0.10
2023-05-23T18:40:23.828Z,0.33
2023-05-23T18:42:51.931Z,0.40
2023-05-23T18:45:19.169Z,0.27
2023-05-23T18:47:46.210Z,0.20
2023-05-23T18:50:13.363Z,0.00
2023-05-23T18:52:40.564Z,0.10
2023-05-23T18:55:08.805Z,0.07
2023-05-23T18:57:35.576Z,0.17
2023-05-23T19:00:04.612Z,0.10
2023-05-23T19:02:31.853Z,0.30
2023-05-23T19:04:58.630Z,0.20
2023-05-23T19:07:25.586Z,0.30
2023-05-23T19:09:52.424Z,0.00
2023-05-23T19:12:19.766Z,0.30
2023-05-23T19:14:46.961Z,0.20
2023-05-23T19:17:13.738Z,0.10
2023-05-23T19:19:40.592Z,0.10
2023-05-23T19:22:07.640Z,0.10
2023-05-23T19:24:34.550Z,0.00
2023-05-23T19:27:02.251Z,0.10
2023-05-23T19:29:29.023Z,0.00
2023-05-23T19:31:55.963Z,0.40
2023-05-23T19:34:22.806Z,0.20
2023-05-23T19:36:49.888Z,0.10
2023-05-23T19:39:16.703Z,0.10
2023-05-23T19:41:44.527Z,0.00
2023-05-23T19:44:29.887Z,0.10
2023-05-23T19:46:56.799Z,0.37
2023-05-23T19:49:23.984Z,0.00
2023-05-23T19:51:50.829Z,0.30
2023-05-23T19:54:17.628Z,0.40
2023-05-23T19:56:45.548Z,0.00
2023-05-23T19:59:13.058Z,0.50
2023-05-23T20:01:40.364Z,0.23
2023-05-23T20:04:07.429Z,0.20
2023-05-23T20:06:34.466Z,0.00
2023-05-23T20:09:02.831Z,0.10
2023-05-23T20:11:31.337Z,0.10
2023-05-23T20:13:58.073Z,0.20
2023-05-23T20:16:26.436Z,0.17
2023-05-23T20:18:53.239Z,0.60
2023-05-23T20:21:20.279Z,0.20
2023-05-23T20:23:47.107Z,0.03
2023-05-23T20:26:13.900Z,0.20
2023-05-23T20:28:41.066Z,0.10
2023-05-23T20:31:07.927Z,0.00
2023-05-23T20:33:34.702Z,0.20
2023-05-23T20:36:01.582Z,0.20
2023-05-23T20:38:28.809Z,0.10
2023-05-23T20:40:55.608Z,0.37
2023-05-23T20:43:22.525Z,0.20
2023-05-23T20:45:49.276Z,0.00
2023-05-23T20:48:16.545Z,0.50
2023-05-23T20:50:43.969Z,0.00
2023-05-23T20:53:12.304Z,0.00
2023-05-23T20:55:39.262Z,0.10
2023-05-23T20:58:07.130Z,0.00
2023-05-23T21:00:33.872Z,0.00
2023-05-23T21:03:02.347Z,0.00
2023-05-23T21:05:30.414Z,0.10
2023-05-23T21:07:57.210Z,0.00
2023-05-23T21:10:23.983Z,0.00
2023-05-23T21:12:51.598Z,0.07
2023-05-23T21:15:18.611Z,0.13
2023-05-23T21:17:48.254Z,0.10
2023-05-23T21:20:16.103Z,0.00
2023-05-23T21:22:42.873Z,0.20
2023-05-23T21:25:09.854Z,0.20
2023-05-23T21:27:36.738Z,0.10
2023-05-23T21:30:05.391Z,0.00
2023-05-23T21:32:32.848Z,0.43
2023-05-23T21:34:59.920Z,0.10
2023-05-23T21:37:26.844Z,0.07
2023-05-23T21:39:53.657Z,0.10
2023-05-23T21:42:20.870Z,0.17
2023-05-23T21:44:47.707Z,0.97
2023-05-23T21:47:14.548Z,0.00
2023-05-23T21:49:41.349Z,0.00
2023-05-23T21:52:08.215Z,0.10
2023-05-23T21:54:34.978Z,0.10
2023-05-23T21:57:02.032Z,0.17
2023-05-23T21:59:29.170Z,0.00
2023-05-23T22:01:56.200Z,0.00
2023-05-23T22:04:23.045Z,0.20
2023-05-23T22:06:49.917Z,0.10
2023-05-23T22:09:16.804Z,0.00
2023-05-23T22:11:43.626Z,0.20
2023-05-23T22:14:10.708Z,0.20
2023-05-23T22:16:40.734Z,0.00
2023-05-23T22:19:09.788Z,0.00
2023-05-23T22:21:36.868Z,0.20
2023-05-23T22:24:04.657Z,0.23
2023-05-23T22:26:31.994Z,0.10
2023-05-23T22:28:58.746Z,0.13
2023-05-23T22:31:26.275Z,0.00
2023-05-23T22:33:53.086Z,0.00
2023-05-23T22:36:20.089Z,0.00
2023-05-23T22:38:46.844Z,0.20
2023-05-23T22:41:14.783Z,0.10
2023-05-23T22:43:41.654Z,0.00
2023-05-23T22:46:08.763Z,0.10
2023-05-23T22:48:35.603Z,0.00
2023-05-23T22:51:03.099Z,0.10
2023-05-23T22:53:30.375Z,0.10
2023-05-23T22:55:57.533Z,0.00
2023-05-23T22:58:24.438Z,0.00
2023-05-23T23:00:51.413Z,0.00
2023-05-23T23:03:18.536Z,0.10
2023-05-23T23:05:45.525Z,0.10
2023-05-23T23:08:12.649Z,0.00
2023-05-23T23:10:41.864Z,0.23
2023-05-23T23:13:08.884Z,0.10
2023-05-23T23:15:36.447Z,0.00
2023-05-23T23:18:03.331Z,0.07
2023-05-23T23:20:30.376Z,0.10
2023-05-23T23:22:57.529Z,0.00
2023-05-23T23:25:24.439Z,0.00
2023-05-23T23:27:51.176Z,0.00
2023-05-23T23:30:17.948Z,0.00
2023-05-23T23:32:46.748Z,0.00
2023-05-23T23:35:13.608Z,0.10
2023-05-23T23:37:40.502Z,0.00
2023-05-23T23:40:08.570Z,0.10
2023-05-23T23:42:35.486Z,0.00
2023-05-23T23:45:02.623Z,0.40
2023-05-23T23:47:29.523Z,0.47
2023-05-23T23:49:56.343Z,0.00
2023-05-23T23:52:23.080Z,0.07
2023-05-23T23:54:49.878Z,0.00
2023-05-23T23:57:17.470Z,0.00
2023-05-23T23:59:44.242Z,0.00
